sensor_id;sensor_type;location;lat;lon;timestamp;pressure;altitude;pressure_sealevel;temperature;humidity
10646;BME280;5371;49.782;9.932;2023-01-27T00:01:52;99996.81;;;-0.14;100.00
10646;BME280;5371;49.782;9.932;2023-01-27T00:04:21;100004.88;;;-0.49;100.00
10646;BME280;5371;49.782;9.932;2023-01-27T00:06:56;99997.66;;;-0.13;100.00
10646;BME280;5371;49.782;9.932;2023-01-27T00:09:24;100004.00;;;-0.48;100.00
10646;BME280;5371;49.782;9.932;2023-01-27T00:11:51;100007.06;;;-0.11;100.00
10646;BME280;5371;49.782;9.932;2023-01-27T00:14:37;100005.28;;;-0.07;100.00
10646;BME280;5371;49.782;9.932;2023-01-27T00:17:05;100003.56;;;-0.04;100.00
10646;BME280;5371;49.782;9.932;2023-01-27T00:19:32;100009.53;;;0.00;100.00
10646;BME280;5371;49.782;9.932;2023-01-27T00:22:00;100011.16;;;0.06;100.00
10646;BME280;5371;49.782;9.932;2023-01-27T00:24:47;100008.50;;;0.13;100.00
10646;BME280;5371;49.782;9.932;2023-01-27T00:27:17;99998.34;;;0.01;100.00
10646;BME280;5371;49.782;9.932;2023-01-27T00:29:47;99997.47;;;0.04;100.00
10646;BME280;5371;49.782;9.932;2023-01-27T00:32:17;99995.19;;;-0.22;100.00
10646;BME280;5371;49.782;9.932;2023-01-27T00:35:02;99995.97;;;-0.17;100.00
10646;BME280;5371;49.782;9.932;2023-01-27T00:37:30;99993.41;;;-0.17;100.00
10646;BME280;5371;49.782;9.932;2023-01-27T00:39:58;99996.81;;;-0.14;100.00
10646;BME280;5371;49.782;9.932;2023-01-27T00:42:25;99993.38;;;-0.14;100.00
10646;BME280;5371;49.782;9.932;2023-01-27T00:44:54;99994.16;;;-0.08;100.00
10646;BME280;5371;49.782;9.932;2023-01-27T00:47:38;99996.69;;;-0.02;100.00
10646;BME280;5371;49.782;9.932;2023-01-27T00:50:07;100001.00;;;-0.05;100.00
10646;BME280;5371;49.782;9.932;2023-01-27T00:52:34;100001.00;;;-0.07;100.00
10646;BME280;5371;49.782;9.932;2023-01-27T00:55:02;99996.88;;;-0.18;100.00
10646;BME280;5371;49.782;9.932;2023-01-27T00:57:29;99996.97;;;-0.30;100.00
10646;BME280;5371;49.782;9.932;2023-01-27T00:59:58;99996.97;;;-0.29;100.00
10646;BME280;5371;49.782;9.932;2023-01-27T01:02:25;100002.13;;;-0.33;100.00
10646;BME280;5371;49.782;9.932;2023-01-27T01:04:52;99993.56;;;-0.29;100.00
10646;BME280;5371;49.782;9.932;2023-01-27T01:07:19;99997.78;;;-0.25;100.00
10646;BME280;5371;49.782;9.932;2023-01-27T01:09:46;100000.34;;;-0.24;100.00
10646;BME280;5371;49.782;9.932;2023-01-27T01:12:13;99996.81;;;-0.15;100.00
10646;BME280;5371;49.782;9.932;2023-01-27T01:14:40;99998.53;;;-0.14;100.00
10646;BME280;5371;49.782;9.932;2023-01-27T01:17:09;100005.97;;;-0.80;100.00
10646;BME280;5371;49.782;9.932;2023-01-27T01:19:36;100008.50;;;-0.74;100.00
10646;BME280;5371;49.782;9.932;2023-01-27T01:22:03;100003.09;;;-0.45;100.00
10646;BME280;5371;49.782;9.932;2023-01-27T01:24:30;100008.97;;;-0.29;100.00
10646;BME280;5371;49.782;9.932;2023-01-27T01:26:57;100011.47;;;-0.26;100.00
10646;BME280;5371;49.782;9.932;2023-01-27T01:29:25;100011.47;;;-0.25;100.00
10646;BME280;5371;49.782;9.932;2023-01-27T01:31:54;100013.19;;;-0.25;100.00
10646;BME280;5371;49.782;9.932;2023-01-27T01:34:22;100009.78;;;-0.26;100.00
10646;BME280;5371;49.782;9.932;2023-01-27T01:36:50;100009.75;;;-0.23;100.00
10646;BME280;5371;49.782;9.932;2023-01-27T01:39:20;100017.47;;;-0.24;100.00
10646;BME280;5371;49.782;9.932;2023-01-27T01:41:47;100017.47;;;-0.24;100.00
10646;BME280;5371;49.782;9.932;2023-01-27T01:44:21;100008.88;;;-0.22;100.00
10646;BME280;5371;49.782;9.932;2023-01-27T01:46:49;100014.06;;;-0.26;100.00
10646;BME280;5371;49.782;9.932;2023-01-27T01:49:18;100008.03;;;-0.21;100.00
10646;BME280;5371;49.782;9.932;2023-01-27T01:51:51;100015.75;;;-0.22;100.00
10646;BME280;5371;49.782;9.932;2023-01-27T01:54:24;100008.34;;;-0.56;100.00
10646;BME280;5371;49.782;9.932;2023-01-27T01:57:01;100011.63;;;-0.42;100.00
10646;BME280;5371;49.782;9.932;2023-01-27T01:59:32;100012.41;;;-0.32;100.00
10646;BME280;5371;49.782;9.932;2023-01-27T02:02:05;100012.47;;;-0.36;100.00
10646;BME280;5371;49.782;9.932;2023-01-27T02:04:37;100008.03;;;-0.22;100.00
10646;BME280;5371;49.782;9.932;2023-01-27T02:07:13;100003.31;;;-0.69;100.00
10646;BME280;5371;49.782;9.932;2023-01-27T02:09:43;100004.94;;;-0.56;100.00
10646;BME280;5371;49.782;9.932;2023-01-27T02:12:13;100000.69;;;-0.63;100.00
10646;BME280;5371;49.782;9.932;2023-01-27T02:14:40;100001.28;;;-0.31;100.00
10646;BME280;5371;49.782;9.932;2023-01-27T02:17:09;100007.16;;;-0.18;100.00
10646;BME280;5371;49.782;9.932;2023-01-27T02:19:47;100005.56;;;-0.31;100.00
10646;BME280;5371;49.782;9.932;2023-01-27T02:22:23;99996.22;;;-0.42;100.00
10646;BME280;5371;49.782;9.932;2023-01-27T02:24:56;99997.84;;;-0.30;100.00
10646;BME280;5371;49.782;9.932;2023-01-27T02:27:28;99994.50;;;-0.40;100.00
10646;BME280;5371;49.782;9.932;2023-01-27T02:29:55;100001.28;;;-0.35;100.00
10646;BME280;5371;49.782;9.932;2023-01-27T02:32:23;99993.81;;;-0.55;100.00
10646;BME280;5371;49.782;9.932;2023-01-27T02:34:51;99991.97;;;-0.43;100.00
10646;BME280;5371;49.782;9.932;2023-01-27T02:37:19;99994.41;;;-0.27;100.00
10646;BME280;5371;49.782;9.932;2023-01-27T02:39:50;99997.78;;;-0.25;100.00
10646;BME280;5371;49.782;9.932;2023-01-27T02:42:19;99996.25;;;-0.45;100.00
10646;BME280;5371;49.782;9.932;2023-01-27T02:44:47;99994.44;;;-0.33;100.00
10646;BME280;5371;49.782;9.932;2023-01-27T02:47:15;99996.91;;;-0.26;100.00
10646;BME280;5371;49.782;9.932;2023-01-27T02:49:44;99988.44;;;-0.32;100.00
10646;BME280;5371;49.782;9.932;2023-01-27T02:52:11;99986.69;;;-0.27;100.00
10646;BME280;5371;49.782;9.932;2023-01-27T02:54:39;99992.34;;;-0.87;100.00
10646;BME280;5371;49.782;9.932;2023-01-27T02:57:08;99995.03;;;-1.02;100.00
10646;BME280;5371;49.782;9.932;2023-01-27T02:59:49;99997.13;;;-0.46;100.00
10646;BME280;5371;49.782;9.932;2023-01-27T03:02:17;99998.78;;;-0.39;100.00
10646;BME280;5371;49.782;9.932;2023-01-27T03:04:49;99999.53;;;-0.29;100.00
10646;BME280;5371;49.782;9.932;2023-01-27T03:07:20;100002.22;;;-0.40;100.00
10646;BME280;5371;49.782;9.932;2023-01-27T03:09:47;100009.78;;;-0.26;100.00
10646;BME280;5371;49.782;9.932;2023-01-27T03:12:14;100008.34;;;-0.56;100.00
10646;BME280;5371;49.782;9.932;2023-01-27T03:14:50;100012.50;;;-0.41;100.00
10646;BME280;5371;49.782;9.932;2023-01-27T03:17:37;100018.41;;;-0.33;100.00
10646;BME280;5371;49.782;9.932;2023-01-27T03:20:48;100016.66;;;-0.28;100.00
10646;BME280;5371;49.782;9.932;2023-01-27T03:23:19;100021.72;;;-0.22;100.00
10646;BME280;5371;49.782;9.932;2023-01-27T03:25:50;100021.66;;;-0.14;100.00
10646;BME280;5371;49.782;9.932;2023-01-27T03:28:17;100025.91;;;-0.12;100.00
10646;BME280;5371;49.782;9.932;2023-01-27T03:31:01;100028.75;;;-0.38;100.00
10646;BME280;5371;49.782;9.932;2023-01-27T03:33:38;100029.44;;;-0.23;100.00
10646;BME280;5371;49.782;9.932;2023-01-27T03:36:22;100021.75;;;-0.23;100.00
10646;BME280;5371;49.782;9.932;2023-01-27T03:39:08;100020.09;;;-0.27;100.00
10646;BME280;5371;49.782;9.932;2023-01-27T03:41:52;100025.41;;;-0.49;100.00
10646;BME280;5371;49.782;9.932;2023-01-27T03:44:38;100024.47;;;-0.42;100.00
10646;BME280;5371;49.782;9.932;2023-01-27T03:47:25;100029.53;;;-0.34;100.00
10646;BME280;5371;49.782;9.932;2023-01-27T03:49:54;100024.28;;;-0.20;100.00
10646;BME280;5371;49.782;9.932;2023-01-27T03:52:21;100019.09;;;-0.14;100.00
10646;BME280;5371;49.782;9.932;2023-01-27T03:54:48;100020.75;;;-0.10;100.00
10646;BME280;5371;49.782;9.932;2023-01-27T03:57:18;100026.94;;;-0.31;100.00
10646;BME280;5371;49.782;9.932;2023-01-27T03:59:45;100024.25;;;-0.17;100.00
10646;BME280;5371;49.782;9.932;2023-01-27T04:02:12;100025.81;;;-0.04;100.00
10646;BME280;5371;49.782;9.932;2023-01-27T04:04:58;100028.41;;;-0.06;100.00
10646;BME280;5371;49.782;9.932;2023-01-27T04:07:42;100028.53;;;-0.18;100.00
10646;BME280;5371;49.782;9.932;2023-01-27T04:10:12;100033.63;;;-0.12;100.00
10646;BME280;5371;49.782;9.932;2023-01-27T04:12:39;100031.25;;;-0.31;100.00
10646;BME280;5371;49.782;9.932;2023-01-27T04:15:06;100033.09;;;-0.47;100.00
10646;BME280;5371;49.782;9.932;2023-01-27T04:17:33;100027.84;;;-0.35;100.00
10646;BME280;5371;49.782;9.932;2023-01-27T04:20:12;100029.63;;;-0.43;100.00
10646;BME280;5371;49.782;9.932;2023-01-27T04:22:39;100028.75;;;-0.41;100.00
10646;BME280;5371;49.782;9.932;2023-01-27T04:25:07;100028.84;;;-0.50;100.00
10646;BME280;5371;49.782;9.932;2023-01-27T04:27:34;100030.38;;;-0.30;100.00
10646;BME280;5371;49.782;9.932;2023-01-27T04:30:01;100027.81;;;-0.30;100.00
10646;BME280;5371;49.782;9.932;2023-01-27T04:32:29;100026.19;;;-0.41;100.00
10646;BME280;5371;49.782;9.932;2023-01-27T04:34:56;100023.47;;;-0.27;100.00
10646;BME280;5371;49.782;9.932;2023-01-27T04:37:27;100034.78;;;-0.45;100.00
10646;BME280;5371;49.782;9.932;2023-01-27T04:39:55;100042.53;;;-0.54;100.00
10646;BME280;5371;49.782;9.932;2023-01-27T04:42:21;100038.09;;;-0.30;100.00
10646;BME280;5371;49.782;9.932;2023-01-27T04:44:49;100035.53;;;-0.35;100.00
10646;BME280;5371;49.782;9.932;2023-01-27T04:47:16;100038.09;;;-0.35;100.00
10646;BME280;5371;49.782;9.932;2023-01-27T04:49:43;100038.97;;;-0.34;100.00
10646;BME280;5371;49.782;9.932;2023-01-27T04:52:10;100049.28;;;-0.38;100.00
10646;BME280;5371;49.782;9.932;2023-01-27T04:54:38;100043.22;;;-0.30;100.00
10646;BME280;5371;49.782;9.932;2023-01-27T04:57:06;100042.47;;;-0.45;100.00
10646;BME280;5371;49.782;9.932;2023-01-27T04:59:34;100046.72;;;-0.41;100.00
10646;BME280;5371;49.782;9.932;2023-01-27T05:02:01;100058.91;;;-0.64;100.00
10646;BME280;5371;49.782;9.932;2023-01-27T05:04:29;100055.22;;;-0.34;100.00
10646;BME280;5371;49.782;9.932;2023-01-27T05:06:56;100052.63;;;-0.29;100.00
10646;BME280;5371;49.782;9.932;2023-01-27T05:09:25;100057.78;;;-0.31;100.00
10646;BME280;5371;49.782;9.932;2023-01-27T05:11:54;100057.75;;;-0.28;100.00
10646;BME280;5371;49.782;9.932;2023-01-27T05:14:20;100060.28;;;-0.26;100.00
10646;BME280;5371;49.782;9.932;2023-01-27T05:16:50;100048.28;;;-0.21;100.00
10646;BME280;5371;49.782;9.932;2023-01-27T05:19:17;100055.84;;;-0.08;100.00
10646;BME280;5371;49.782;9.932;2023-01-27T05:21:43;100053.41;;;-0.21;100.00
10646;BME280;5371;49.782;9.932;2023-01-27T05:24:11;100040.75;;;-0.41;100.00
10646;BME280;5371;49.782;9.932;2023-01-27T05:26:38;100049.47;;;-0.62;100.00
10646;BME280;5371;49.782;9.932;2023-01-27T05:29:07;100053.19;;;-1.05;100.00
10646;BME280;5371;49.782;9.932;2023-01-27T05:31:35;100050.38;;;-0.66;100.00
10646;BME280;5371;49.782;9.932;2023-01-27T05:34:02;100049.31;;;-0.45;100.00
10646;BME280;5371;49.782;9.932;2023-01-27T05:36:30;100053.50;;;-0.32;100.00
10646;BME280;5371;49.782;9.932;2023-01-27T05:38:57;100050.94;;;-0.32;100.00
10646;BME280;5371;49.782;9.932;2023-01-27T05:41:26;100051.78;;;-0.28;100.00
10646;BME280;5371;49.782;9.932;2023-01-27T05:43:54;100051.78;;;-0.30;100.00
10646;BME280;5371;49.782;9.932;2023-01-27T05:46:24;100062.03;;;-0.28;100.00
10646;BME280;5371;49.782;9.932;2023-01-27T05:48:55;100062.75;;;-0.14;100.00
10646;BME280;5371;49.782;9.932;2023-01-27T05:51:23;100066.25;;;-0.20;100.00
10646;BME280;5371;49.782;9.932;2023-01-27T05:53:54;100064.53;;;-0.21;100.00
10646;BME280;5371;49.782;9.932;2023-01-27T05:56:22;100068.78;;;-0.17;100.00
10646;BME280;5371;49.782;9.932;2023-01-27T05:58:52;100068.22;;;-0.51;100.00
10646;BME280;5371;49.782;9.932;2023-01-27T06:01:25;100071.72;;;-0.62;100.00
10646;BME280;5371;49.782;9.932;2023-01-27T06:03:53;100076.78;;;-0.50;100.00
10646;BME280;5371;49.782;9.932;2023-01-27T06:06:22;100075.84;;;-0.42;100.00
10646;BME280;5371;49.782;9.932;2023-01-27T06:08:50;100077.38;;;-0.19;100.00
10646;BME280;5371;49.782;9.932;2023-01-27T06:11:19;100072.09;;;-0.07;100.00
10646;BME280;5371;49.782;9.932;2023-01-27T06:13:47;100072.00;;;0.05;100.00
10646;BME280;5371;49.782;9.932;2023-01-27T06:16:16;100074.63;;;-0.01;100.00
10646;BME280;5371;49.782;9.932;2023-01-27T06:18:45;100083.69;;;-0.57;100.00
10646;BME280;5371;49.782;9.932;2023-01-27T06:21:13;100076.53;;;-0.23;100.00
10646;BME280;5371;49.782;9.932;2023-01-27T06:23:41;100079.09;;;-0.21;100.00
10646;BME280;5371;49.782;9.932;2023-01-27T06:26:10;100080.66;;;-0.04;100.00
10646;BME280;5371;49.782;9.932;2023-01-27T06:28:38;100083.16;;;0.01;100.00
10646;BME280;5371;49.782;9.932;2023-01-27T06:31:06;100070.34;;;-0.01;100.00
10646;BME280;5371;49.782;9.932;2023-01-27T06:33:33;100072.03;;;0.00;100.00
10646;BME280;5371;49.782;9.932;2023-01-27T06:36:03;100070.72;;;-0.42;100.00
10646;BME280;5371;49.782;9.932;2023-01-27T06:38:34;100076.53;;;-0.20;100.00
10646;BME280;5371;49.782;9.932;2023-01-27T06:41:01;100073.03;;;-0.13;100.00
10646;BME280;5371;49.782;9.932;2023-01-27T06:43:28;100085.88;;;-0.11;100.00
10646;BME280;5371;49.782;9.932;2023-01-27T06:45:56;100079.03;;;-0.17;100.00
10646;BME280;5371;49.782;9.932;2023-01-27T06:48:23;100087.56;;;-0.10;100.00
10646;BME280;5371;49.782;9.932;2023-01-27T06:50:51;100093.81;;;-0.37;100.00
10646;BME280;5371;49.782;9.932;2023-01-27T06:53:20;100096.22;;;-0.22;100.00
10646;BME280;5371;49.782;9.932;2023-01-27T06:55:48;100094.44;;;-0.15;100.00
10646;BME280;5371;49.782;9.932;2023-01-27T06:58:20;100091.84;;;-0.11;100.00
10646;BME280;5371;49.782;9.932;2023-01-27T07:00:47;100106.38;;;-0.08;100.00
10646;BME280;5371;49.782;9.932;2023-01-27T07:03:14;100108.09;;;-0.07;100.00
10646;BME280;5371;49.782;9.932;2023-01-27T07:05:41;100108.94;;;-0.08;100.00
10646;BME280;5371;49.782;9.932;2023-01-27T07:08:10;100111.56;;;-0.10;100.00
10646;BME280;5371;49.782;9.932;2023-01-27T07:10:38;100121.78;;;-0.05;100.00
10646;BME280;5371;49.782;9.932;2023-01-27T07:13:06;100125.13;;;0.03;100.00
10646;BME280;5371;49.782;9.932;2023-01-27T07:15:33;100133.69;;;0.02;100.00
10646;BME280;5371;49.782;9.932;2023-01-27T07:18:01;100141.47;;;-0.04;100.00
10646;BME280;5371;49.782;9.932;2023-01-27T07:20:29;100141.53;;;-0.10;100.00
10646;BME280;5371;49.782;9.932;2023-01-27T07:22:56;100136.44;;;-0.18;100.00
10646;BME280;5371;49.782;9.932;2023-01-27T07:25:24;100141.34;;;0.10;100.00
10646;BME280;5371;49.782;9.932;2023-01-27T07:27:52;100140.59;;;0.00;100.00
10646;BME280;5371;49.782;9.932;2023-01-27T07:30:20;100146.59;;;-0.04;100.00
10646;BME280;5371;49.782;9.932;2023-01-27T07:32:47;100143.47;;;-0.43;100.00
10646;BME280;5371;49.782;9.932;2023-01-27T07:35:15;100150.41;;;-0.54;100.00
10646;BME280;5371;49.782;9.932;2023-01-27T07:37:42;100149.59;;;-0.62;100.00
10646;BME280;5371;49.782;9.932;2023-01-27T07:40:10;100149.63;;;-0.65;100.00
10646;BME280;5371;49.782;9.932;2023-01-27T07:42:38;100149.53;;;-0.53;100.00
10646;BME280;5371;49.782;9.932;2023-01-27T07:45:08;100153.00;;;-0.57;100.00
10646;BME280;5371;49.782;9.932;2023-01-27T07:47:35;100154.91;;;-0.95;100.00
10646;BME280;5371;49.782;9.932;2023-01-27T07:50:02;100162.47;;;-0.65;100.00
10646;BME280;5371;49.782;9.932;2023-01-27T07:52:31;100160.53;;;-0.32;100.00
10646;BME280;5371;49.782;9.932;2023-01-27T07:54:58;100168.47;;;-0.72;100.00
10646;BME280;5371;49.782;9.932;2023-01-27T07:57:25;100178.81;;;-0.84;100.00
10646;BME280;5371;49.782;9.932;2023-01-27T07:59:52;100170.88;;;-0.43;100.00
10646;BME280;5371;49.782;9.932;2023-01-27T08:02:21;100168.28;;;-0.39;100.00
10646;BME280;5371;49.782;9.932;2023-01-27T08:04:48;100175.16;;;-0.41;100.00
10646;BME280;5371;49.782;9.932;2023-01-27T08:07:16;100164.13;;;-0.58;100.00
10646;BME280;5371;49.782;9.932;2023-01-27T08:09:43;100169.44;;;-0.90;100.00
10646;BME280;5371;49.782;9.932;2023-01-27T08:12:10;100165.78;;;-0.51;100.00
10646;BME280;5371;49.782;9.932;2023-01-27T08:14:37;100173.50;;;-0.51;100.00
10646;BME280;5371;49.782;9.932;2023-01-27T08:17:04;100169.28;;;-0.59;100.00
10646;BME280;5371;49.782;9.932;2023-01-27T08:19:33;100177.03;;;-0.67;100.00
10646;BME280;5371;49.782;9.932;2023-01-27T08:22:00;100175.38;;;-0.77;100.00
10646;BME280;5371;49.782;9.932;2023-01-27T08:24:27;100177.53;;;-0.15;100.00
10646;BME280;5371;49.782;9.932;2023-01-27T08:26:55;100179.94;;;0.05;100.00
10646;BME280;5371;49.782;9.932;2023-01-27T08:29:22;100184.16;;;0.11;100.00
10646;BME280;5371;49.782;9.932;2023-01-27T08:31:49;100178.94;;;0.20;100.00
10646;BME280;5371;49.782;9.932;2023-01-27T08:34:16;100177.28;;;0.17;100.00
10646;BME280;5371;49.782;9.932;2023-01-27T08:36:45;100178.22;;;0.07;100.00
10646;BME280;5371;49.782;9.932;2023-01-27T08:39:12;100170.09;;;0.51;100.00
10646;BME280;5371;49.782;9.932;2023-01-27T08:41:39;100170.88;;;0.55;100.00
10646;BME280;5371;49.782;9.932;2023-01-27T08:44:06;100179.31;;;0.69;100.00
10646;BME280;5371;49.782;9.932;2023-01-27T08:46:33;100177.50;;;0.79;100.00
10646;BME280;5371;49.782;9.932;2023-01-27T09:17:05;100207.09;;;1.18;100.00
10646;BME280;5371;49.782;9.932;2023-01-27T09:19:33;100195.28;;;0.98;100.00
10646;BME280;5371;49.782;9.932;2023-01-27T09:22:00;100198.31;;;1.29;100.00
10646;BME280;5371;49.782;9.932;2023-01-27T09:24:27;100196.00;;;1.09;100.00
10646;BME280;5371;49.782;9.932;2023-01-27T09:26:55;100203.66;;;1.17;100.00
10646;BME280;5371;49.782;9.932;2023-01-27T09:29:22;100213.66;;;1.37;100.00
10646;BME280;5371;49.782;9.932;2023-01-27T09:31:48;100207.47;;;1.53;100.00
10646;BME280;5371;49.782;9.932;2023-01-27T09:34:17;100211.63;;;1.62;100.00
10646;BME280;5371;49.782;9.932;2023-01-27T09:36:49;100219.28;;;1.68;100.00
10646;BME280;5371;49.782;9.932;2023-01-27T09:39:19;100211.66;;;1.60;100.00
10646;BME280;5371;49.782;9.932;2023-01-27T09:41:57;100211.03;;;1.44;100.00
10646;BME280;5371;49.782;9.932;2023-01-27T09:47:25;100221.13;;;1.58;100.00
10646;BME280;5371;49.782;9.932;2023-01-27T09:50:07;100213.84;;;1.26;100.00
10646;BME280;5371;49.782;9.932;2023-01-27T09:53:00;100219.59;;;1.45;100.00
10646;BME280;5371;49.782;9.932;2023-01-27T09:55:39;100215.00;;;1.67;100.00
10646;BME280;5371;49.782;9.932;2023-01-27T09:58:17;100220.75;;;1.82;100.00
10646;BME280;5371;49.782;9.932;2023-01-27T10:00:50;100212.22;;;1.80;100.00
10646;BME280;5371;49.782;9.932;2023-01-27T10:03:35;100215.59;;;1.82;100.00
10646;BME280;5371;49.782;9.932;2023-01-27T10:12:19;100212.09;;;1.90;100.00
10646;BME280;5371;49.782;9.932;2023-01-27T10:14:59;100205.97;;;1.97;100.00
10646;BME280;5371;49.782;9.932;2023-01-27T10:17:39;100207.81;;;1.88;100.00
10646;BME280;5371;49.782;9.932;2023-01-27T10:20:23;100207.16;;;1.74;100.00
10646;BME280;5371;49.782;9.932;2023-01-27T10:23:01;100211.38;;;1.80;100.00
10646;BME280;5371;49.782;9.932;2023-01-27T10:25:50;100203.72;;;1.74;100.00
10646;BME280;5371;49.782;9.932;2023-01-27T10:31:10;100202.41;;;2.04;100.00
10646;BME280;5371;49.782;9.932;2023-01-27T10:33:49;100201.53;;;2.05;100.00
10646;BME280;5371;49.782;9.932;2023-01-27T10:36:24;100198.75;;;2.17;100.00
10646;BME280;5371;49.782;9.932;2023-01-27T10:39:06;100201.66;;;1.97;100.00
10646;BME280;5371;49.782;9.932;2023-01-27T10:41:44;100196.63;;;1.90;100.00
10646;BME280;5371;49.782;9.932;2023-01-27T10:44:30;100191.50;;;1.86;100.00
10646;BME280;5371;49.782;9.932;2023-01-27T10:47:05;100187.25;;;2.36;100.00
10646;BME280;5371;49.782;9.932;2023-01-27T10:49:39;100197.66;;;1.78;100.00
10646;BME280;5371;49.782;9.932;2023-01-27T10:52:10;100198.81;;;2.12;100.00
10646;BME280;5371;49.782;9.932;2023-01-27T10:54:42;100194.09;;;1.85;100.00
10646;BME280;5371;49.782;9.932;2023-01-27T10:57:17;100191.25;;;2.02;100.00
10646;BME280;5371;49.782;9.932;2023-01-27T10:59:51;100198.13;;;2.03;100.00
10646;BME280;5371;49.782;9.932;2023-01-27T11:02:24;100196.34;;;1.48;100.00
10646;BME280;5371;49.782;9.932;2023-01-27T11:04:57;100196.69;;;1.83;100.00
10646;BME280;5371;49.782;9.932;2023-01-27T11:07:29;100188.50;;;2.12;100.00
10646;BME280;5371;49.782;9.932;2023-01-27T11:10:02;100185.28;;;2.00;100.00
10646;BME280;5371;49.782;9.932;2023-01-27T11:12:35;100187.72;;;2.09;100.00
10646;BME280;5371;49.782;9.932;2023-01-27T11:15:15;100189.41;;;2.10;100.00
10646;BME280;5371;49.782;9.932;2023-01-27T11:17:46;100190.19;;;2.16;100.00
10646;BME280;5371;49.782;9.932;2023-01-27T11:20:26;100185.03;;;2.15;100.00
10646;BME280;5371;49.782;9.932;2023-01-27T11:22:58;100192.06;;;2.07;100.00
10646;BME280;5371;49.782;9.932;2023-01-27T11:25:36;100190.94;;;2.21;100.00
10646;BME280;5371;49.782;9.932;2023-01-27T11:28:21;100189.03;;;2.33;100.00
10646;BME280;5371;49.782;9.932;2023-01-27T11:31:01;100186.06;;;2.05;100.00
10646;BME280;5371;49.782;9.932;2023-01-27T11:33:47;100177.63;;;2.46;100.00
10646;BME280;5371;49.782;9.932;2023-01-27T11:36:19;100182.03;;;2.39;100.00
10646;BME280;5371;49.782;9.932;2023-01-27T11:38:46;100176.00;;;2.40;100.00
10646;BME280;5371;49.782;9.932;2023-01-27T11:41:14;100174.75;;;2.61;100.00
10646;BME280;5371;49.782;9.932;2023-01-27T11:43:44;100178.16;;;2.63;100.00
10646;BME280;5371;49.782;9.932;2023-01-27T11:46:13;100181.13;;;2.42;100.00
10646;BME280;5371;49.782;9.932;2023-01-27T11:48:47;100178.25;;;2.58;100.00
10646;BME280;5371;49.782;9.932;2023-01-27T11:51:19;100176.34;;;2.68;100.00
10646;BME280;5371;49.782;9.932;2023-01-27T11:53:51;100176.31;;;2.70;100.00
10646;BME280;5371;49.782;9.932;2023-01-27T11:56:22;100177.66;;;2.89;100.00
10646;BME280;5371;49.782;9.932;2023-01-27T11:58:58;100180.03;;;2.55;100.00
10646;BME280;5371;49.782;9.932;2023-01-27T12:01:36;100177.41;;;2.56;100.00
10646;BME280;5371;49.782;9.932;2023-01-27T12:04:10;100169.84;;;2.47;100.00
10646;BME280;5371;49.782;9.932;2023-01-27T12:06:43;100172.41;;;2.49;100.00
10646;BME280;5371;49.782;9.932;2023-01-27T12:09:30;100176.34;;;2.20;100.00
10646;BME280;5371;49.782;9.932;2023-01-27T12:12:20;100167.91;;;2.58;100.00
10646;BME280;5371;49.782;9.932;2023-01-27T12:14:51;100156.31;;;2.35;100.00
10646;BME280;5371;49.782;9.932;2023-01-27T12:17:25;100163.91;;;2.42;100.00
10646;BME280;5371;49.782;9.932;2023-01-27T12:19:55;100164.59;;;2.52;100.00
10646;BME280;5371;49.782;9.932;2023-01-27T12:22:26;100160.66;;;2.33;100.00
10646;BME280;5371;49.782;9.932;2023-01-27T12:24:57;100161.47;;;2.36;100.00
10646;BME280;5371;49.782;9.932;2023-01-27T12:27:29;100156.53;;;2.70;100.00
10646;BME280;5371;49.782;9.932;2023-01-27T12:30:02;100154.88;;;2.64;100.00
10646;BME280;5371;49.782;9.932;2023-01-27T12:32:38;100149.47;;;2.78;100.00
10646;BME280;5371;49.782;9.932;2023-01-27T12:35:18;100140.31;;;3.05;100.00
10646;BME280;5371;49.782;9.932;2023-01-27T12:37:47;100138.59;;;2.62;100.00
10646;BME280;5371;49.782;9.932;2023-01-27T12:40:19;100139.47;;;3.45;100.00
10646;BME280;5371;49.782;9.932;2023-01-27T12:43:09;100140.38;;;3.79;98.15
10646;BME280;5371;49.782;9.932;2023-01-27T12:45:39;100133.13;;;3.93;96.64
10646;BME280;5371;49.782;9.932;2023-01-27T12:48:18;100127.31;;;2.67;100.00
10646;BME280;5371;49.782;9.932;2023-01-27T12:51:02;100124.38;;;3.26;100.00
10646;BME280;5371;49.782;9.932;2023-01-27T12:53:31;100125.09;;;3.68;99.71
10646;BME280;5371;49.782;9.932;2023-01-27T12:56:00;100124.72;;;3.84;97.85
10646;BME280;5371;49.782;9.932;2023-01-27T12:58:33;100132.72;;;3.37;100.00
10646;BME280;5371;49.782;9.932;2023-01-27T13:01:07;100129.41;;;3.31;100.00
10646;BME280;5371;49.782;9.932;2023-01-27T13:03:53;100122.53;;;3.30;100.00
10646;BME280;5371;49.782;9.932;2023-01-27T13:06:28;100124.94;;;3.37;99.84
10646;BME280;5371;49.782;9.932;2023-01-27T13:09:02;100119.66;;;3.44;100.00
10646;BME280;5371;49.782;9.932;2023-01-27T13:11:33;100120.56;;;3.41;100.00
10646;BME280;5371;49.782;9.932;2023-01-27T13:14:07;100122.97;;;3.49;99.63
10646;BME280;5371;49.782;9.932;2023-01-27T13:16:36;100121.50;;;3.38;100.00
10646;BME280;5371;49.782;9.932;2023-01-27T13:19:15;100124.69;;;3.11;100.00
10646;BME280;5371;49.782;9.932;2023-01-27T13:21:44;100128.25;;;3.06;100.00
10646;BME280;5371;49.782;9.932;2023-01-27T13:24:14;100127.59;;;2.96;100.00
10646;BME280;5371;49.782;9.932;2023-01-27T13:26:48;100126.78;;;2.94;100.00
10646;BME280;5371;49.782;9.932;2023-01-27T13:29:20;100127.31;;;2.68;100.00
10646;BME280;5371;49.782;9.932;2023-01-27T13:31:53;100118.69;;;2.69;100.00
10646;BME280;5371;49.782;9.932;2023-01-27T13:34:25;100122.69;;;2.82;100.00
10646;BME280;5371;49.782;9.932;2023-01-27T13:37:00;100121.41;;;3.03;100.00
10646;BME280;5371;49.782;9.932;2023-01-27T13:39:42;100121.72;;;2.89;100.00
10646;BME280;5371;49.782;9.932;2023-01-27T13:42:18;100134.13;;;3.12;100.00
10646;BME280;5371;49.782;9.932;2023-01-27T13:44:53;100134.16;;;3.11;100.00
10646;BME280;5371;49.782;9.932;2023-01-27T13:47:30;100133.50;;;3.01;100.00
10646;BME280;5371;49.782;9.932;2023-01-27T13:50:06;100134.41;;;3.00;100.00
10646;BME280;5371;49.782;9.932;2023-01-27T13:52:34;100136.06;;;3.03;100.00
10646;BME280;5371;49.782;9.932;2023-01-27T13:55:03;100140.63;;;2.90;100.00
10646;BME280;5371;49.782;9.932;2023-01-27T13:57:53;100144.84;;;2.94;100.00